sensor_id;sensor_type;location;lat;lon;timestamp;pressure;altitude;pressure_sealevel;temperature;humidity
55301;BME280;58302;51.446;-2.000;2023-03-20T00:00:35;100828.38;;;5.79;100.00
55301;BME280;58302;51.446;-2.000;2023-03-20T00:03:02;100820.97;;;5.74;100.00
55301;BME280;58302;51.446;-2.000;2023-03-20T00:05:29;100820.00;;;5.69;100.00
55301;BME280;58302;51.446;-2.000;2023-03-20T00:07:56;100811.59;;;5.59;100.00
55301;BME280;58302;51.446;-2.000;2023-03-20T00:10:37;100806.50;;;5.50;100.00
55301;BME280;58302;51.446;-2.000;2023-03-20T00:13:05;100812.16;;;5.42;100.00
55301;BME280;58302;51.446;-2.000;2023-03-20T00:15:36;100804.72;;;5.44;100.00
55301;BME280;58302;51.446;-2.000;2023-03-20T00:18:13;100799.59;;;5.54;100.00
55301;BME280;58302;51.446;-2.000;2023-03-20T00:20:40;100794.09;;;5.68;100.00
55301;BME280;58302;51.446;-2.000;2023-03-20T00:23:06;100790.25;;;5.75;100.00
55301;BME280;58302;51.446;-2.000;2023-03-20T00:25:32;100793.00;;;5.87;100.00
55301;BME280;58302;51.446;-2.000;2023-03-20T00:27:58;100794.88;;;5.87;100.00
55301;BME280;58302;51.446;-2.000;2023-03-20T00:30:28;100806.50;;;5.87;100.00
55301;BME280;58302;51.446;-2.000;2023-03-20T00:32:56;100803.38;;;5.90;100.00
55301;BME280;58302;51.446;-2.000;2023-03-20T00:35:25;100795.06;;;5.92;100.00
55301;BME280;58302;51.446;-2.000;2023-03-20T00:37:53;100793.00;;;5.87;100.00
55301;BME280;58302;51.446;-2.000;2023-03-20T00:40:20;100792.88;;;5.82;100.00
55301;BME280;58302;51.446;-2.000;2023-03-20T00:42:50;100789.66;;;5.73;100.00
55301;BME280;58302;51.446;-2.000;2023-03-20T00:45:19;100779.53;;;5.69;100.00
55301;BME280;58302;51.446;-2.000;2023-03-20T00:47:48;100783.53;;;5.66;100.00
55301;BME280;58302;51.446;-2.000;2023-03-20T00:50:19;100778.50;;;5.70;100.00
55301;BME280;58302;51.446;-2.000;2023-03-20T00:52:47;100769.88;;;5.79;100.00
55301;BME280;58302;51.446;-2.000;2023-03-20T00:55:13;100770.25;;;5.83;100.00
55301;BME280;58302;51.446;-2.000;2023-03-20T00:57:43;100767.72;;;5.88;100.00
55301;BME280;58302;51.446;-2.000;2023-03-20T01:02:57;100770.03;;;6.03;100.00
55301;BME280;58302;51.446;-2.000;2023-03-20T01:05:25;100764.28;;;5.99;100.00
55301;BME280;58302;51.446;-2.000;2023-03-20T01:07:52;100763.53;;;5.92;100.00
55301;BME280;58302;51.446;-2.000;2023-03-20T01:10:18;100768.91;;;5.92;100.00
55301;BME280;58302;51.446;-2.000;2023-03-20T01:12:45;100764.97;;;5.95;100.00
55301;BME280;58302;51.446;-2.000;2023-03-20T01:15:24;100748.69;;;6.01;100.00
55301;BME280;58302;51.446;-2.000;2023-03-20T01:17:51;100749.06;;;6.05;100.00
55301;BME280;58302;51.446;-2.000;2023-03-20T01:20:21;100735.78;;;6.03;100.00
55301;BME280;58302;51.446;-2.000;2023-03-20T01:22:48;100747.38;;;6.04;100.00
55301;BME280;58302;51.446;-2.000;2023-03-20T01:25:15;100746.38;;;6.05;100.00
55301;BME280;58302;51.446;-2.000;2023-03-20T01:27:46;100743.72;;;5.98;100.00
55301;BME280;58302;51.446;-2.000;2023-03-20T01:30:28;100744.03;;;5.90;100.00
55301;BME280;58302;51.446;-2.000;2023-03-20T01:32:56;100738.44;;;5.92;100.00
55301;BME280;58302;51.446;-2.000;2023-03-20T01:35:26;100733.84;;;5.92;100.00
55301;BME280;58302;51.446;-2.000;2023-03-20T01:37:53;100732.78;;;5.93;100.00
55301;BME280;58302;51.446;-2.000;2023-03-20T01:40:29;100738.94;;;6.00;100.00
55301;BME280;58302;51.446;-2.000;2023-03-20T01:42:56;100738.47;;;6.03;100.00
55301;BME280;58302;51.446;-2.000;2023-03-20T01:45:27;100738.63;;;6.08;100.00
55301;BME280;58302;51.446;-2.000;2023-03-20T01:47:54;100744.75;;;6.16;100.00
55301;BME280;58302;51.446;-2.000;2023-03-20T01:50:22;100747.38;;;6.22;100.00
55301;BME280;58302;51.446;-2.000;2023-03-20T01:52:53;100744.81;;;6.27;100.00
55301;BME280;58302;51.446;-2.000;2023-03-20T01:55:21;100735.06;;;6.26;100.00
55301;BME280;58302;51.446;-2.000;2023-03-20T01:57:47;100738.94;;;6.30;100.00
55301;BME280;58302;51.446;-2.000;2023-03-20T02:00:15;100738.94;;;6.30;100.00
55301;BME280;58302;51.446;-2.000;2023-03-20T02:02:44;100726.88;;;6.33;100.00
55301;BME280;58302;51.446;-2.000;2023-03-20T02:05:14;100739.31;;;6.34;100.00
55301;BME280;58302;51.446;-2.000;2023-03-20T02:07:43;100719.72;;;6.39;100.00
55301;BME280;58302;51.446;-2.000;2023-03-20T02:10:13;100716.91;;;6.45;100.00
55301;BME280;58302;51.446;-2.000;2023-03-20T02:12:41;100712.91;;;6.48;100.00
55301;BME280;58302;51.446;-2.000;2023-03-20T02:15:10;100709.53;;;6.52;100.00
55301;BME280;58302;51.446;-2.000;2023-03-20T02:17:36;100707.44;;;6.54;100.00
55301;BME280;58302;51.446;-2.000;2023-03-20T02:20:14;100713.41;;;6.56;100.00
55301;BME280;58302;51.446;-2.000;2023-03-20T02:51:05;100675.41;;;6.93;100.00
55301;BME280;58302;51.446;-2.000;2023-03-20T02:59:06;100660.34;;;6.97;100.00
55301;BME280;58302;51.446;-2.000;2023-03-20T03:01:46;100666.47;;;7.04;100.00
55301;BME280;58302;51.446;-2.000;2023-03-20T03:04:25;100657.53;;;7.04;100.00
55301;BME280;58302;51.446;-2.000;2023-03-20T03:06:53;100658.34;;;7.04;100.00
55301;BME280;58302;51.446;-2.000;2023-03-20T03:09:34;100652.81;;;7.11;100.00
55301;BME280;58302;51.446;-2.000;2023-03-20T03:12:10;100651.50;;;7.13;100.00
55301;BME280;58302;51.446;-2.000;2023-03-20T03:14:41;100635.50;;;7.24;100.00
55301;BME280;58302;51.446;-2.000;2023-03-20T03:17:10;100635.63;;;7.29;100.00
55301;BME280;58302;51.446;-2.000;2023-03-20T03:19:40;100627.03;;;7.32;100.00
55301;BME280;58302;51.446;-2.000;2023-03-20T03:22:07;100626.56;;;7.35;100.00
55301;BME280;58302;51.446;-2.000;2023-03-20T03:24:38;100626.41;;;7.42;100.00
55301;BME280;58302;51.446;-2.000;2023-03-20T03:27:20;100622.41;;;7.44;100.00
55301;BME280;58302;51.446;-2.000;2023-03-20T03:29:52;100613.50;;;7.44;100.00
55301;BME280;58302;51.446;-2.000;2023-03-20T03:32:25;100614.66;;;7.48;100.00
55301;BME280;58302;51.446;-2.000;2023-03-20T03:34:52;100612.78;;;7.48;100.00
55301;BME280;58302;51.446;-2.000;2023-03-20T03:45:43;100611.91;;;7.59;100.00
55301;BME280;58302;51.446;-2.000;2023-03-20T03:48:18;100602.16;;;7.58;100.00
55301;BME280;58302;51.446;-2.000;2023-03-20T03:50:50;100599.19;;;7.60;100.00
55301;BME280;58302;51.446;-2.000;2023-03-20T03:53:24;100601.09;;;7.59;100.00
55301;BME280;58302;51.446;-2.000;2023-03-20T03:56:00;100593.28;;;7.63;100.00
55301;BME280;58302;51.446;-2.000;2023-03-20T03:58:30;100592.47;;;7.62;100.00
55301;BME280;58302;51.446;-2.000;2023-03-20T04:00:59;100584.94;;;7.64;100.00
55301;BME280;58302;51.446;-2.000;2023-03-20T04:03:33;100579.63;;;7.70;100.00
55301;BME280;58302;51.446;-2.000;2023-03-20T04:06:02;100581.84;;;7.73;100.00
55301;BME280;58302;51.446;-2.000;2023-03-20T04:08:30;100579.72;;;7.75;100.00
55301;BME280;58302;51.446;-2.000;2023-03-20T04:10:56;100571.69;;;7.80;100.00
55301;BME280;58302;51.446;-2.000;2023-03-20T04:13:22;100566.03;;;7.81;100.00
55301;BME280;58302;51.446;-2.000;2023-03-20T04:15:48;100565.88;;;7.88;100.00
55301;BME280;58302;51.446;-2.000;2023-03-20T04:18:16;100565.72;;;7.95;100.00
55301;BME280;58302;51.446;-2.000;2023-03-20T04:20:48;100561.38;;;7.93;100.00
55301;BME280;58302;51.446;-2.000;2023-03-20T04:23:14;100552.78;;;7.97;100.00
55301;BME280;58302;51.446;-2.000;2023-03-20T04:25:40;100550.38;;;8.00;100.00
55301;BME280;58302;51.446;-2.000;2023-03-20T04:28:06;100539.00;;;7.98;100.00
55301;BME280;58302;51.446;-2.000;2023-03-20T04:30:32;100547.69;;;8.00;100.00
55301;BME280;58302;51.446;-2.000;2023-03-20T04:32:58;100547.75;;;8.05;100.00
55301;BME280;58302;51.446;-2.000;2023-03-20T04:35:24;100540.72;;;8.04;100.00
55301;BME280;58302;51.446;-2.000;2023-03-20T04:37:50;100538.81;;;8.05;100.00
55301;BME280;58302;51.446;-2.000;2023-03-20T04:40:16;100528.25;;;8.03;100.00
55301;BME280;58302;51.446;-2.000;2023-03-20T04:42:42;100536.59;;;8.02;100.00
55301;BME280;58302;51.446;-2.000;2023-03-20T04:45:08;100533.06;;;8.01;100.00
55301;BME280;58302;51.446;-2.000;2023-03-20T04:47:34;100523.91;;;8.02;100.00
55301;BME280;58302;51.446;-2.000;2023-03-20T04:50:00;100521.78;;;8.04;100.00
55301;BME280;58302;51.446;-2.000;2023-03-20T04:52:26;100516.91;;;8.06;100.00
55301;BME280;58302;51.446;-2.000;2023-03-20T04:54:52;100515.28;;;8.05;100.00
55301;BME280;58302;51.446;-2.000;2023-03-20T04:57:18;100512.56;;;8.05;100.00
55301;BME280;58302;51.446;-2.000;2023-03-20T04:59:44;100507.50;;;8.09;100.00
55301;BME280;58302;51.446;-2.000;2023-03-20T05:02:10;100511.84;;;8.10;100.00
55301;BME280;58302;51.446;-2.000;2023-03-20T05:04:41;100507.00;;;8.12;100.00
55301;BME280;58302;51.446;-2.000;2023-03-20T05:07:07;100515.94;;;8.12;100.00
55301;BME280;58302;51.446;-2.000;2023-03-20T05:09:33;100512.75;;;8.15;100.00
55301;BME280;58302;51.446;-2.000;2023-03-20T05:11:59;100519.78;;;8.16;100.00
55301;BME280;58302;51.446;-2.000;2023-03-20T05:14:25;100518.50;;;8.19;100.00
55301;BME280;58302;51.446;-2.000;2023-03-20T05:16:51;100513.16;;;8.24;100.00
55301;BME280;58302;51.446;-2.000;2023-03-20T05:19:17;100518.31;;;8.26;100.00
55301;BME280;58302;51.446;-2.000;2023-03-20T05:21:42;100509.59;;;8.24;100.00
55301;BME280;58302;51.446;-2.000;2023-03-20T05:24:08;100508.56;;;8.25;100.00
55301;BME280;58302;51.446;-2.000;2023-03-20T05:26:34;100512.38;;;8.29;100.00
55301;BME280;58302;51.446;-2.000;2023-03-20T05:29:00;100507.56;;;8.31;100.00
55301;BME280;58302;51.446;-2.000;2023-03-20T05:31:26;100499.19;;;8.32;100.00
55301;BME280;58302;51.446;-2.000;2023-03-20T05:33:53;100505.03;;;8.41;100.00
55301;BME280;58302;51.446;-2.000;2023-03-20T05:36:18;100503.97;;;8.42;100.00
55301;BME280;58302;51.446;-2.000;2023-03-20T05:38:45;100497.53;;;8.48;100.00
55301;BME280;58302;51.446;-2.000;2023-03-20T05:41:11;100488.34;;;8.49;100.00
55301;BME280;58302;51.446;-2.000;2023-03-20T05:43:37;100490.31;;;8.54;100.00
55301;BME280;58302;51.446;-2.000;2023-03-20T05:46:03;100488.41;;;8.54;100.00
55301;BME280;58302;51.446;-2.000;2023-03-20T05:48:29;100487.91;;;8.57;100.00
55301;BME280;58302;51.446;-2.000;2023-03-20T05:50:55;100472.47;;;8.58;100.00
55301;BME280;58302;51.446;-2.000;2023-03-20T05:53:21;100471.97;;;8.61;100.00
55301;BME280;58302;51.446;-2.000;2023-03-20T05:55:47;100464.16;;;8.64;100.00
55301;BME280;58302;51.446;-2.000;2023-03-20T05:58:13;100471.22;;;8.65;100.00
55301;BME280;58302;51.446;-2.000;2023-03-20T06:00:39;100474.25;;;8.69;100.00
55301;BME280;58302;51.446;-2.000;2023-03-20T06:03:05;100470.72;;;8.68;100.00
55301;BME280;58302;51.446;-2.000;2023-03-20T06:05:34;100474.06;;;8.76;100.00
55301;BME280;58302;51.446;-2.000;2023-03-20T06:08:01;100468.97;;;8.79;100.00
55301;BME280;58302;51.446;-2.000;2023-03-20T06:10:27;100469.50;;;8.81;100.00
55301;BME280;58302;51.446;-2.000;2023-03-20T06:12:56;100475.19;;;8.80;100.00
55301;BME280;58302;51.446;-2.000;2023-03-20T06:15:22;100477.63;;;8.81;100.00
55301;BME280;58302;51.446;-2.000;2023-03-20T06:17:48;100475.69;;;8.77;100.00
55301;BME280;58302;51.446;-2.000;2023-03-20T06:20:14;100475.94;;;8.75;100.00
55301;BME280;58302;51.446;-2.000;2023-03-20T06:22:40;100478.41;;;8.77;100.00
55301;BME280;58302;51.446;-2.000;2023-03-20T06:25:07;100474.88;;;8.76;100.00
55301;BME280;58302;51.446;-2.000;2023-03-20T06:27:33;100479.53;;;8.81;100.00
55301;BME280;58302;51.446;-2.000;2023-03-20T06:29:58;100478.47;;;8.82;100.00
55301;BME280;58302;51.446;-2.000;2023-03-20T06:32:24;100483.06;;;8.81;100.00
55301;BME280;58302;51.446;-2.000;2023-03-20T06:34:51;100482.78;;;8.83;100.00
55301;BME280;58302;51.446;-2.000;2023-03-20T06:37:18;100480.91;;;8.83;100.00
55301;BME280;58302;51.446;-2.000;2023-03-20T06:39:44;100482.88;;;8.88;100.00
55301;BME280;58302;51.446;-2.000;2023-03-20T06:42:10;100485.91;;;8.91;100.00
55301;BME280;58302;51.446;-2.000;2023-03-20T06:44:38;100494.84;;;8.92;100.00
55301;BME280;58302;51.446;-2.000;2023-03-20T06:47:04;100483.47;;;8.95;100.00
55301;BME280;58302;51.446;-2.000;2023-03-20T06:49:30;100490.56;;;8.96;100.00
55301;BME280;58302;51.446;-2.000;2023-03-20T06:51:56;100495.97;;;8.96;100.00
55301;BME280;58302;51.446;-2.000;2023-03-20T06:54:22;100489.78;;;9.01;100.00
55301;BME280;58302;51.446;-2.000;2023-03-20T06:56:48;100494.44;;;9.05;100.00
55301;BME280;58302;51.446;-2.000;2023-03-20T06:59:14;100487.94;;;9.06;100.00
55301;BME280;58302;51.446;-2.000;2023-03-20T07:01:40;100488.53;;;9.08;100.00
55301;BME280;58302;51.446;-2.000;2023-03-20T07:04:06;100487.50;;;9.14;100.00
55301;BME280;58302;51.446;-2.000;2023-03-20T07:06:32;100495.69;;;9.19;100.00
55301;BME280;58302;51.446;-2.000;2023-03-20T07:08:58;100495.44;;;9.21;100.00
55301;BME280;58302;51.446;-2.000;2023-03-20T07:11:24;100490.59;;;9.23;100.00
55301;BME280;58302;51.446;-2.000;2023-03-20T07:13:50;100492.72;;;9.21;100.00
55301;BME280;58302;51.446;-2.000;2023-03-20T07:16:16;100493.59;;;9.27;100.00
55301;BME280;58302;51.446;-2.000;2023-03-20T07:18:42;100496.63;;;9.30;100.00
55301;BME280;58302;51.446;-2.000;2023-03-20T07:21:09;100498.56;;;9.35;100.00
55301;BME280;58302;51.446;-2.000;2023-03-20T07:23:38;100492.34;;;9.34;100.00
55301;BME280;58302;51.446;-2.000;2023-03-20T07:26:04;100486.09;;;9.39;100.00
55301;BME280;58302;51.446;-2.000;2023-03-20T07:28:31;100476.97;;;9.45;100.00
55301;BME280;58302;51.446;-2.000;2023-03-20T07:30:57;100483.50;;;9.49;100.00
55301;BME280;58302;51.446;-2.000;2023-03-20T07:33:23;100490.06;;;9.53;100.00
55301;BME280;58302;51.446;-2.000;2023-03-20T07:35:53;100494.44;;;9.59;100.00
55301;BME280;58302;51.446;-2.000;2023-03-20T07:38:20;100487.72;;;9.67;100.00
55301;BME280;58302;51.446;-2.000;2023-03-20T07:40:46;100489.13;;;9.69;100.00
55301;BME280;58302;51.446;-2.000;2023-03-20T07:43:15;100497.81;;;9.71;100.00
55301;BME280;58302;51.446;-2.000;2023-03-20T07:45:41;100500.03;;;9.74;100.00
55301;BME280;58302;51.446;-2.000;2023-03-20T07:48:07;100510.91;;;9.80;100.00
55301;BME280;58302;51.446;-2.000;2023-03-20T07:50:33;100509.84;;;9.81;100.00
55301;BME280;58302;51.446;-2.000;2023-03-20T07:52:59;100506.03;;;9.82;100.00
55301;BME280;58302;51.446;-2.000;2023-03-20T07:55:25;100515.31;;;9.86;100.00
55301;BME280;58302;51.446;-2.000;2023-03-20T07:57:51;100515.03;;;9.87;100.00
55301;BME280;58302;51.446;-2.000;2023-03-20T08:00:18;100521.34;;;9.93;100.00
55301;BME280;58302;51.446;-2.000;2023-03-20T08:02:44;100513.78;;;9.95;100.00
55301;BME280;58302;51.446;-2.000;2023-03-20T08:05:10;100518.63;;;9.93;100.00
55301;BME280;58302;51.446;-2.000;2023-03-20T08:07:36;100513.22;;;9.98;100.00
55301;BME280;58302;51.446;-2.000;2023-03-20T08:10:03;100517.13;;;10.07;100.00
55301;BME280;58302;51.446;-2.000;2023-03-20T08:12:29;100512.28;;;10.14;100.00
55301;BME280;58302;51.446;-2.000;2023-03-20T08:14:55;100507.97;;;10.18;100.00
55301;BME280;58302;51.446;-2.000;2023-03-20T08:17:21;100522.44;;;10.24;100.00
55301;BME280;58302;51.446;-2.000;2023-03-20T08:19:47;100523.81;;;10.32;100.00
55301;BME280;58302;51.446;-2.000;2023-03-20T08:22:12;100525.53;;;10.43;100.00
55301;BME280;58302;51.446;-2.000;2023-03-20T08:24:38;100521.22;;;10.47;100.00
55301;BME280;58302;51.446;-2.000;2023-03-20T08:27:04;100522.31;;;10.51;100.00
55301;BME280;58302;51.446;-2.000;2023-03-20T08:29:30;100526.72;;;10.57;100.00
55301;BME280;58302;51.446;-2.000;2023-03-20T08:31:56;100522.13;;;10.63;100.00
55301;BME280;58302;51.446;-2.000;2023-03-20T08:34:22;100519.72;;;10.71;100.00
55301;BME280;58302;51.446;-2.000;2023-03-20T08:36:48;100523.00;;;10.78;100.00
55301;BME280;58302;51.446;-2.000;2023-03-20T08:39:14;100529.28;;;10.84;100.00
55301;BME280;58302;51.446;-2.000;2023-03-20T08:41:40;100531.97;;;10.79;100.00
55301;BME280;58302;51.446;-2.000;2023-03-20T08:44:13;100537.94;;;10.76;100.00
55301;BME280;58302;51.446;-2.000;2023-03-20T08:46:39;100538.22;;;10.74;100.00
55301;BME280;58302;51.446;-2.000;2023-03-20T08:49:05;100546.09;;;10.76;100.00
55301;BME280;58302;51.446;-2.000;2023-03-20T08:51:31;100538.47;;;10.73;100.00
55301;BME280;58302;51.446;-2.000;2023-03-20T08:53:57;100535.81;;;10.83;100.00
55301;BME280;58302;51.446;-2.000;2023-03-20T08:56:23;100538.84;;;10.92;100.00
55301;BME280;58302;51.446;-2.000;2023-03-20T08:58:49;100535.88;;;10.98;100.00
55301;BME280;58302;51.446;-2.000;2023-03-20T09:01:18;100540.53;;;11.08;100.00
55301;BME280;58302;51.446;-2.000;2023-03-20T09:03:44;100538.91;;;11.12;100.00
55301;BME280;58302;51.446;-2.000;2023-03-20T09:06:10;100542.19;;;11.14;100.00
55301;BME280;58302;51.446;-2.000;2023-03-20T09:08:36;100556.06;;;11.13;100.00
55301;BME280;58302;51.446;-2.000;2023-03-20T09:11:04;100558.78;;;11.13;100.00
55301;BME280;58302;51.446;-2.000;2023-03-20T09:13:30;100555.22;;;11.07;100.00
55301;BME280;58302;51.446;-2.000;2023-03-20T09:15:56;100562.00;;;11.09;100.00
55301;BME280;58302;51.446;-2.000;2023-03-20T09:18:23;100561.19;;;11.09;100.00
55301;BME280;58302;51.446;-2.000;2023-03-20T09:20:49;100560.63;;;11.02;100.00
55301;BME280;58302;51.446;-2.000;2023-03-20T09:23:16;100564.44;;;11.01;100.00
55301;BME280;58302;51.446;-2.000;2023-03-20T09:25:42;100566.88;;;11.02;100.00
55301;BME280;58302;51.446;-2.000;2023-03-20T09:28:08;100561.50;;;11.13;100.00
55301;BME280;58302;51.446;-2.000;2023-03-20T09:30:34;100561.78;;;11.16;100.00
55301;BME280;58302;51.446;-2.000;2023-03-20T09:33:00;100557.72;;;11.19;100.00
55301;BME280;58302;51.446;-2.000;2023-03-20T09:35:26;100558.03;;;11.27;100.00
55301;BME280;58302;51.446;-2.000;2023-03-20T09:37:52;100550.69;;;11.33;100.00
55301;BME280;58302;51.446;-2.000;2023-03-20T09:40:32;100565.13;;;11.39;100.00
55301;BME280;58302;51.446;-2.000;2023-03-20T09:43:15;100552.63;;;11.48;100.00
55301;BME280;58302;51.446;-2.000;2023-03-20T09:49:15;100553.50;;;11.79;100.00
55301;BME280;58302;51.446;-2.000;2023-03-20T09:54:40;100564.19;;;12.16;100.00
55301;BME280;58302;51.446;-2.000;2023-03-20T09:58:01;100565.53;;;12.13;100.00
55301;BME280;58302;51.446;-2.000;2023-03-20T10:00:21;100567.19;;;12.09;100.00
55301;BME280;58302;51.446;-2.000;2023-03-20T10:02:58;100573.16;;;12.11;100.00
55301;BME280;58302;51.446;-2.000;2023-03-20T10:05:29;100565.53;;;12.13;100.00
55301;BME280;58302;51.446;-2.000;2023-03-20T10:08:01;100573.97;;;12.17;100.00
55301;BME280;58302;51.446;-2.000;2023-03-20T10:10:49;100581.63;;;12.20;100.00
55301;BME280;58302;51.446;-2.000;2023-03-20T10:18:37;100573.72;;;11.98;100.00
55301;BME280;58302;51.446;-2.000;2023-03-20T10:23:48;100572.63;;;12.20;100.00
55301;BME280;58302;51.446;-2.000;2023-03-20T10:26:20;100581.63;;;12.20;100.00
55301;BME280;58302;51.446;-2.000;2023-03-20T10:28:52;100585.97;;;12.16;100.00
55301;BME280;58302;51.446;-2.000;2023-03-20T10:37:00;100600.38;;;11.91;100.00
55301;BME280;58302;51.446;-2.000;2023-03-20T10:42:27;100599.47;;;11.60;100.00
55301;BME280;58302;51.446;-2.000;2023-03-20T10:45:01;100586.91;;;11.44;100.00
55301;BME280;58302;51.446;-2.000;2023-03-20T10:47:33;100594.78;;;11.35;100.00
55301;BME280;58302;51.446;-2.000;2023-03-20T10:50:10;100592.31;;;11.33;100.00
55301;BME280;58302;51.446;-2.000;2023-03-20T10:52:41;100588.50;;;11.34;100.00
55301;BME280;58302;51.446;-2.000;2023-03-20T10:55:17;100577.38;;;11.41;100.00
55301;BME280;58302;51.446;-2.000;2023-03-20T10:57:53;100567.34;;;11.57;100.00
55301;BME280;58302;51.446;-2.000;2023-03-20T11:00:23;100565.19;;;11.74;100.00
55301;BME280;58302;51.446;-2.000;2023-03-20T11:02:51;100567.44;;;11.98;100.00
55301;BME280;58302;51.446;-2.000;2023-03-20T11:05:35;100565.00;;;12.11;100.00
55301;BME280;58302;51.446;-2.000;2023-03-20T11:08:12;100574.78;;;12.28;100.00
55301;BME280;58302;51.446;-2.000;2023-03-20T11:10:40;100569.06;;;12.29;100.00
55301;BME280;58302;51.446;-2.000;2023-03-20T11:13:29;100575.31;;;12.40;100.00
55301;BME280;58302;51.446;-2.000;2023-03-20T11:15:55;100572.31;;;12.52;100.00
55301;BME280;58302;51.446;-2.000;2023-03-20T11:18:25;100577.22;;;12.45;100.00
55301;BME280;58302;51.446;-2.000;2023-03-20T11:20:54;100573.69;;;12.49;100.00
55301;BME280;58302;51.446;-2.000;2023-03-20T11:23:26;100574.50;;;12.39;100.00
55301;BME280;58302;51.446;-2.000;2023-03-20T11:31:13;100576.69;;;12.37;100.00
55301;BME280;58302;51.446;-2.000;2023-03-20T11:36:39;100581.06;;;12.49;100.00
55301;BME280;58302;51.446;-2.000;2023-03-20T11:39:15;100569.84;;;12.55;100.00
55301;BME280;58302;51.446;-2.000;2023-03-20T11:41:50;100576.09;;;12.71;100.00
55301;BME280;58302;51.446;-2.000;2023-03-20T11:46:55;100579.66;;;12.61;100.00
55301;BME280;58302;51.446;-2.000;2023-03-20T11:49:23;100575.03;;;12.52;100.00
55301;BME280;58302;51.446;-2.000;2023-03-20T11:51:51;100566.59;;;12.43;100.00
55301;BME280;58302;51.446;-2.000;2023-03-20T11:54:22;100563.59;;;12.39;100.00
55301;BME280;58302;51.446;-2.000;2023-03-20T11:56:59;100569.06;;;12.24;100.00
55301;BME280;58302;51.446;-2.000;2023-03-20T11:59:31;100568.00;;;12.05;100.00
55301;BME280;58302;51.446;-2.000;2023-03-20T12:02:00;100568.78;;;11.90;100.00
55301;BME280;58302;51.446;-2.000;2023-03-20T12:04:30;100566.06;;;11.85;100.00
55301;BME280;58302;51.446;-2.000;2023-03-20T12:07:12;100558.66;;;11.60;100.00
55301;BME280;58302;51.446;-2.000;2023-03-20T12:09:43;100554.84;;;11.66;100.00
55301;BME280;58302;51.446;-2.000;2023-03-20T12:12:35;100550.75;;;11.69;100.00
55301;BME280;58302;51.446;-2.000;2023-03-20T12:23:33;100530.59;;;11.54;100.00
55301;BME280;58302;51.446;-2.000;2023-03-20T12:36:49;100523.25;;;11.80;100.00
55301;BME280;58302;51.446;-2.000;2023-03-20T12:39:20;100524.69;;;11.83;100.00
55301;BME280;58302;51.446;-2.000;2023-03-20T13:01:03;100500.09;;;12.39;100.00
55301;BME280;58302;51.446;-2.000;2023-03-20T13:03:51;100486.16;;;12.56;100.00
55301;BME280;58302;51.446;-2.000;2023-03-20T13:14:49;100494.34;;;12.56;100.00
55301;BME280;58302;51.446;-2.000;2023-03-20T13:17:23;100491.31;;;12.57;100.00
55301;BME280;58302;51.446;-2.000;2023-03-20T13:23:06;100489.97;;;12.60;100.00
55301;BME280;58302;51.446;-2.000;2023-03-20T13:28:26;100493.28;;;12.42;100.00
55301;BME280;58302;51.446;-2.000;2023-03-20T13:36:31;100476.72;;;12.18;100.00
55301;BME280;58302;51.446;-2.000;2023-03-20T13:39:30;100469.34;;;12.23;100.00
55301;BME280;58302;51.446;-2.000;2023-03-20T13:41:59;100476.41;;;12.29;100.00
55301;BME280;58302;51.446;-2.000;2023-03-20T13:44:28;100475.31;;;12.35;100.00
55301;BME280;58302;51.446;-2.000;2023-03-20T13:47:04;100476.44;;;12.14;100.00
55301;BME280;58302;51.446;-2.000;2023-03-20T13:49:35;100473.16;;;12.17;100.00
55301;BME280;58302;51.446;-2.000;2023-03-20T13:52:21;100470.44;;;12.17;100.00
55301;BME280;58302;51.446;-2.000;2023-03-20T14:00:06;100464.63;;;12.54;100.00
55301;BME280;58302;51.446;-2.000;2023-03-20T14:03:07;100456.06;;;12.81;100.00
55301;BME280;58302;51.446;-2.000;2023-03-20T14:05:39;100460.94;;;12.89;100.00
55301;BME280;58302;51.446;-2.000;2023-03-20T14:13:58;100466.78;;;12.62;100.00
55301;BME280;58302;51.446;-2.000;2023-03-20T14:16:28;100456.13;;;12.66;100.00
55301;BME280;58302;51.446;-2.000;2023-03-20T14:19:15;100468.41;;;12.63;100.00
55301;BME280;58302;51.446;-2.000;2023-03-20T14:21:49;100461.13;;;12.38;100.00
55301;BME280;58302;51.446;-2.000;2023-03-20T14:24:18;100461.44;;;12.32;100.00
55301;BME280;58302;51.446;-2.000;2023-03-20T14:26:55;100454.38;;;12.26;100.00
55301;BME280;58302;51.446;-2.000;2023-03-20T14:34:47;100454.09;;;12.22;100.00
55301;BME280;58302;51.446;-2.000;2023-03-20T14:40:14;100442.13;;;12.03;100.00
55301;BME280;58302;51.446;-2.000;2023-03-20T14:42:58;100437.25;;;11.95;100.00
55301;BME280;58302;51.446;-2.000;2023-03-20T14:45:40;100433.94;;;12.03;100.00
55301;BME280;58302;51.446;-2.000;2023-03-20T14:48:13;100435.03;;;12.07;100.00
55301;BME280;58302;51.446;-2.000;2023-03-20T14:53:22;100419.81;;;11.91;100.00
55301;BME280;58302;51.446;-2.000;2023-03-20T14:55:49;100422.53;;;11.85;100.00
55301;BME280;58302;51.446;-2.000;2023-03-20T15:01:05;100426.34;;;11.44;100.00
55301;BME280;58302;51.446;-2.000;2023-03-20T15:03:32;100428.25;;;11.38;100.00
55301;BME280;58302;51.446;-2.000;2023-03-20T15:06:00;100423.63;;;11.28;100.00
55301;BME280;58302;51.446;-2.000;2023-03-20T15:08:32;100422.00;;;11.27;100.00
55301;BME280;58302;51.446;-2.000;2023-03-20T15:11:04;100412.72;;;11.18;100.00
55301;BME280;58302;51.446;-2.000;2023-03-20T15:13:32;100408.06;;;11.08;100.00
55301;BME280;58302;51.446;-2.000;2023-03-20T15:16:04;100406.16;;;11.09;100.00
55301;BME280;58302;51.446;-2.000;2023-03-20T15:18:37;100403.44;;;11.09;100.00
55301;BME280;58302;51.446;-2.000;2023-03-20T15:21:12;100413.25;;;11.15;100.00
55301;BME280;58302;51.446;-2.000;2023-03-20T15:23:43;100415.44;;;11.18;100.00
55301;BME280;58302;51.446;-2.000;2023-03-20T15:26:10;100399.66;;;11.20;100.00
55301;BME280;58302;51.446;-2.000;2023-03-20T15:28:38;100407.81;;;11.25;100.00